createdAt,value
2019-03-01T00:01:46.955Z,98453.08
2019-03-01T00:04:13.574Z,98463.54
2019-03-01T00:06:40.138Z,98466.92
2019-03-01T00:09:06.719Z,98469.83
2019-03-01T00:11:33.376Z,98469.17
2019-03-01T00:13:59.948Z,98467.33
2019-03-01T00:16:26.530Z,98472.86
2019-03-01T00:18:53.110Z,98481.78
2019-03-01T00:21:19.677Z,98481.59
2019-03-01T00:23:46.259Z,98483.22
2019-03-01T00:26:12.833Z,98478.70
2019-03-01T00:28:39.413Z,98482.08
2019-03-01T00:31:05.984Z,98482.29
2019-03-01T00:33:32.563Z,98483.38
2019-03-01T00:35:59.176Z,98478.48
2019-03-01T00:38:25.747Z,98474.95
2019-03-01T00:40:52.314Z,98473.15
2019-03-01T00:43:18.915Z,98475.67
2019-03-01T00:45:45.554Z,98473.91
2019-03-01T00:48:12.200Z,98480.82
2019-03-01T00:50:38.770Z,98481.20
2019-03-01T00:53:05.349Z,98483.72
2019-03-01T00:55:31.910Z,98474.13
2019-03-01T00:57:58.483Z,98479.20
2019-03-01T01:00:25.078Z,98475.62
2019-03-01T01:02:51.647Z,98481.12
2019-03-01T01:05:18.221Z,98479.17
2019-03-01T01:07:44.806Z,98480.84
2019-03-01T01:10:11.382Z,98489.05
2019-03-01T01:12:37.949Z,98484.55
2019-03-01T01:15:04.514Z,98483.03
2019-03-01T01:17:31.087Z,98482.83
2019-03-01T01:19:57.655Z,98482.15
2019-03-01T01:22:24.237Z,98492.92
2019-03-01T01:24:50.880Z,98493.17
2019-03-01T01:27:17.467Z,98497.36
2019-03-01T01:29:44.051Z,98492.75
2019-03-01T01:32:10.637Z,98496.97
2019-03-01T01:34:37.209Z,98500.68
2019-03-01T01:37:03.770Z,98499.07
2019-03-01T01:39:30.347Z,98503.09
2019-03-01T01:41:56.959Z,98498.77
2019-03-01T01:44:23.537Z,98496.23
2019-03-01T01:46:50.145Z,98498.39
2019-03-01T01:49:16.718Z,98491.37
2019-03-01T01:51:43.304Z,98496.53
2019-03-01T01:54:09.914Z,98496.15
2019-03-01T01:56:36.488Z,98493.15
2019-03-01T01:59:03.061Z,98497.92
2019-03-01T02:01:29.626Z,98500.55
2019-03-01T02:03:56.232Z,98498.85
2019-03-01T02:06:22.805Z,98497.55
2019-03-01T02:08:49.412Z,98499.31
2019-03-01T02:11:15.989Z,98498.00
2019-03-01T02:13:42.603Z,98500.74
2019-03-01T02:16:09.180Z,98503.83
2019-03-01T02:18:35.783Z,98503.36
2019-03-01T02:21:02.349Z,98494.27
2019-03-01T02:23:28.973Z,98504.45
2019-03-01T02:25:55.545Z,98505.47
2019-03-01T02:28:22.145Z,98503.86
2019-03-01T02:30:48.714Z,98495.70
2019-03-01T02:33:15.332Z,98494.84
2019-03-01T02:35:41.904Z,98501.31
2019-03-01T02:38:08.571Z,98492.14
2019-03-01T02:40:35.149Z,98491.14
2019-03-01T02:43:01.771Z,98495.83
2019-03-01T02:45:28.322Z,98492.74
2019-03-01T02:47:54.935Z,98496.21
2019-03-01T02:50:21.518Z,98496.67
2019-03-01T02:52:48.149Z,98490.13
2019-03-01T02:55:14.775Z,98497.14
2019-03-01T02:57:41.361Z,98501.16
2019-03-01T03:00:07.962Z,98499.70
2019-03-01T03:02:34.577Z,98498.59
2019-03-01T03:05:01.143Z,98503.14
2019-03-01T03:07:27.719Z,98500.69
2019-03-01T03:09:54.292Z,98495.61
2019-03-01T03:12:20.892Z,98494.08
2019-03-01T03:14:47.552Z,98499.13
2019-03-01T03:17:14.217Z,98504.53
2019-03-01T03:19:40.797Z,98501.77
2019-03-01T03:22:07.363Z,98495.27
2019-03-01T03:24:33.939Z,98500.05
2019-03-01T03:27:00.519Z,98496.08
2019-03-01T03:29:27.085Z,98502.94
2019-03-01T03:31:53.695Z,98497.66
2019-03-01T03:34:20.284Z,98502.44
2019-03-01T03:36:46.911Z,98499.39
2019-03-01T03:39:13.491Z,98501.58
2019-03-01T03:41:40.073Z,98500.99
2019-03-01T03:44:06.730Z,98499.91
2019-03-01T03:46:33.330Z,98504.38
2019-03-01T03:48:59.951Z,98502.44
2019-03-01T03:51:26.539Z,98509.77
2019-03-01T03:53:53.159Z,98507.67
2019-03-01T03:56:19.729Z,98510.91
2019-03-01T03:58:46.361Z,98512.36
2019-03-01T04:01:13.135Z,98514.03
2019-03-01T04:03:39.744Z,98511.20
2019-03-01T04:06:06.317Z,98513.56
2019-03-01T04:08:32.911Z,98511.88
2019-03-01T04:10:59.492Z,98512.86
2019-03-01T04:13:26.099Z,98513.25
2019-03-01T04:15:52.669Z,98503.72
2019-03-01T04:18:19.285Z,98507.70
2019-03-01T04:20:45.842Z,98502.73
2019-03-01T04:23:12.454Z,98505.41
2019-03-01T04:25:39.087Z,98502.02
2019-03-01T04:28:05.690Z,98506.86
2019-03-01T04:30:32.249Z,98506.47
2019-03-01T04:32:58.820Z,98515.61
2019-03-01T04:35:25.399Z,98515.36
2019-03-01T04:37:51.964Z,98519.34
2019-03-01T04:40:18.544Z,98514.36
2019-03-01T04:42:45.127Z,98521.42
2019-03-01T04:45:11.737Z,98515.48
2019-03-01T04:47:38.305Z,98521.70
2019-03-01T04:50:04.919Z,98517.98
2019-03-01T04:52:31.491Z,98511.17
2019-03-01T04:54:58.086Z,98519.53
2019-03-01T04:57:24.664Z,98514.45
2019-03-01T04:59:51.251Z,98519.67
2019-03-01T05:02:17.827Z,98527.56
2019-03-01T05:04:44.452Z,98524.24
2019-03-01T05:07:11.022Z,98525.23
2019-03-01T05:09:37.617Z,98528.30
2019-03-01T05:12:04.186Z,98527.52
2019-03-01T05:14:30.785Z,98536.36
2019-03-01T05:16:57.359Z,98527.81
2019-03-01T05:19:24.107Z,98532.78
2019-03-01T05:21:50.766Z,98539.05
2019-03-01T05:24:17.352Z,98536.59
2019-03-01T05:26:43.937Z,98537.91
2019-03-01T05:29:10.521Z,98542.73
2019-03-01T05:31:37.103Z,98541.72
2019-03-01T05:34:03.717Z,98545.05
2019-03-01T05:36:30.286Z,98535.78
2019-03-01T05:38:56.891Z,98536.04
2019-03-01T05:41:23.471Z,98531.43
2019-03-01T05:43:50.067Z,98534.23
2019-03-01T05:46:16.714Z,98536.57
2019-03-01T05:48:43.331Z,98541.10
2019-03-01T05:51:09.924Z,98538.28
2019-03-01T05:53:36.514Z,98541.67
2019-03-01T05:56:03.084Z,98546.58
2019-03-01T05:58:29.695Z,98544.10
2019-03-01T06:00:56.271Z,98547.86
2019-03-01T06:03:22.843Z,98550.08
2019-03-01T06:05:49.429Z,98549.62
2019-03-01T06:08:16.005Z,98553.09
2019-03-01T06:10:42.577Z,98554.92
2019-03-01T06:13:09.152Z,98558.71
2019-03-01T06:15:35.750Z,98562.47
2019-03-01T06:18:02.318Z,98559.14
2019-03-01T06:20:28.937Z,98561.36
2019-03-01T06:22:55.518Z,98565.60
2019-03-01T06:25:22.222Z,98570.14
2019-03-01T06:27:48.800Z,98574.64
2019-03-01T06:30:15.383Z,98567.45
2019-03-01T06:32:42.321Z,98571.13
2019-03-01T06:35:08.988Z,98585.62
2019-03-01T06:37:35.559Z,98585.02
2019-03-01T06:40:02.132Z,98577.05
2019-03-01T06:42:28.706Z,98579.82
2019-03-01T06:44:55.280Z,98584.45
2019-03-01T06:47:21.866Z,98581.70
2019-03-01T06:49:48.442Z,98589.30
2019-03-01T06:52:15.054Z,98580.87
2019-03-01T06:54:41.632Z,98585.17
2019-03-01T06:57:08.228Z,98579.35
2019-03-01T06:59:34.804Z,98577.38
2019-03-01T07:02:02.881Z,98579.08
2019-03-01T07:04:29.541Z,98583.50
2019-03-01T07:06:56.120Z,98583.19
2019-03-01T07:09:22.703Z,98584.27
2019-03-01T07:11:49.285Z,98587.88
2019-03-01T07:14:15.980Z,98594.48
2019-03-01T07:16:42.550Z,98594.70
2019-03-01T07:19:09.120Z,98595.33
2019-03-01T07:21:35.695Z,98589.26
2019-03-01T07:24:02.340Z,98592.26
2019-03-01T07:26:28.962Z,98589.47
2019-03-01T07:28:55.550Z,98591.80
2019-03-01T07:31:22.123Z,98587.88
2019-03-01T07:33:48.719Z,98591.98
2019-03-01T07:36:15.299Z,98589.22
2019-03-01T07:38:41.920Z,98589.28
2019-03-01T07:41:08.491Z,98580.30
2019-03-01T07:43:35.082Z,98583.86
2019-03-01T07:46:01.661Z,98581.45
2019-03-01T07:48:28.253Z,98585.50
2019-03-01T07:50:55.192Z,98579.58
2019-03-01T07:53:22.731Z,98581.33
2019-03-01T07:55:49.315Z,98575.80
2019-03-01T07:58:15.930Z,98589.78
2019-03-01T08:00:42.503Z,98587.70
2019-03-01T08:03:11.845Z,98584.02
2019-03-01T08:05:39.553Z,98584.21
2019-03-01T08:08:05.796Z,98585.59
2019-03-01T08:10:32.437Z,98592.77
2019-03-01T08:12:59.044Z,98581.13
2019-03-01T08:15:25.620Z,98586.52
2019-03-01T08:17:52.235Z,98578.67
2019-03-01T08:20:18.811Z,98582.59
2019-03-01T08:22:48.935Z,98582.13
2019-03-01T08:25:13.716Z,98579.52
2019-03-01T08:27:41.988Z,98581.98
2019-03-01T08:30:10.370Z,98581.20
2019-03-01T08:32:36.930Z,98576.16
2019-03-01T08:35:05.235Z,98578.52
2019-03-01T08:37:31.819Z,98574.81
2019-03-01T08:39:58.392Z,98571.97
2019-03-01T08:42:24.997Z,98574.39
2019-03-01T08:44:54.660Z,98571.66
2019-03-01T08:47:23.465Z,98568.29
2019-03-01T08:49:48.188Z,98566.72
2019-03-01T08:52:14.775Z,98565.20
2019-03-01T08:54:41.356Z,98563.58
2019-03-01T08:57:07.931Z,98562.59
2019-03-01T08:59:34.510Z,98560.23
2019-03-01T09:02:01.171Z,98560.29
2019-03-01T09:04:27.746Z,98562.11
2019-03-01T09:06:54.327Z,98553.70
2019-03-01T09:09:21.914Z,98558.42
2019-03-01T09:11:48.667Z,98547.58
2019-03-01T09:14:15.263Z,98550.25
2019-03-01T09:16:41.918Z,98553.55
2019-03-01T09:19:08.492Z,98551.68
2019-03-01T09:21:39.397Z,98550.92
2019-03-01T09:24:05.601Z,98549.03
2019-03-01T09:26:32.172Z,98547.13
2019-03-01T09:28:58.747Z,98552.53
2019-03-01T09:31:25.336Z,98542.04
2019-03-01T09:33:53.720Z,98538.08
2019-03-01T09:36:21.400Z,98534.23
2019-03-01T09:38:48.169Z,98529.52
2019-03-01T09:41:14.784Z,98525.27
2019-03-01T09:43:41.364Z,98532.63
2019-03-01T09:46:07.944Z,98525.91
2019-03-01T09:48:34.540Z,98523.12
2019-03-01T09:51:01.159Z,98523.77
2019-03-01T09:53:30.670Z,98525.69
2019-03-01T09:55:56.150Z,98522.11
2019-03-01T09:58:22.824Z,98511.76
2019-03-01T10:00:56.215Z,98505.56
2019-03-01T10:03:17.695Z,98496.04
2019-03-01T10:05:44.326Z,98495.00
2019-03-01T10:08:10.962Z,98496.20
2019-03-01T10:10:37.568Z,98484.95
2019-03-01T10:13:04.143Z,98484.02
2019-03-01T10:15:30.751Z,98478.84
2019-03-01T10:17:57.333Z,98475.82
2019-03-01T10:20:25.503Z,98474.36
2019-03-01T10:22:52.246Z,98470.36
2019-03-01T10:25:18.865Z,98474.63
2019-03-01T10:27:45.452Z,98463.56
2019-03-01T10:30:12.057Z,98465.89
2019-03-01T10:32:38.633Z,98462.59
2019-03-01T10:35:05.388Z,98455.09
2019-03-01T10:37:31.984Z,98459.63
2019-03-01T10:39:58.612Z,98462.66
2019-03-01T10:42:25.206Z,98454.37
2019-03-01T10:44:51.795Z,98456.17
2019-03-01T10:47:18.374Z,98449.39
2019-03-01T10:49:44.966Z,98449.35
2019-03-01T10:52:11.542Z,98454.18
2019-03-01T10:54:38.143Z,98448.56
2019-03-01T10:57:04.725Z,98438.83
2019-03-01T10:59:31.339Z,98441.31
2019-03-01T11:01:57.915Z,98445.54
2019-03-01T11:04:24.528Z,98437.13
2019-03-01T11:06:51.108Z,98426.07
2019-03-01T11:09:17.720Z,98428.09
2019-03-01T11:11:44.297Z,98427.36
2019-03-01T11:14:10.917Z,98422.39
2019-03-01T11:16:37.484Z,98415.37
2019-03-01T11:19:04.086Z,98422.77
2019-03-01T11:21:30.660Z,98416.34
2019-03-01T11:23:57.280Z,98420.10
2019-03-01T11:26:23.862Z,98422.31
2019-03-01T11:28:50.436Z,98417.25
2019-03-01T11:31:17.003Z,98419.48
2019-03-01T11:33:43.585Z,98417.24
2019-03-01T11:36:10.166Z,98421.23
2019-03-01T11:38:36.735Z,98418.83
2019-03-01T11:41:03.354Z,98408.45
2019-03-01T11:43:29.926Z,98402.40
2019-03-01T11:45:56.515Z,98408.12
2019-03-01T11:48:23.095Z,98406.66
2019-03-01T11:50:49.665Z,98397.97
2019-03-01T11:53:16.241Z,98397.34
2019-03-01T11:55:42.825Z,98394.81
2019-03-01T11:58:09.398Z,98392.16
2019-03-01T12:00:35.964Z,98385.31
2019-03-01T12:03:02.536Z,98389.27
2019-03-01T12:05:29.119Z,98383.52
2019-03-01T12:07:55.759Z,98385.22
2019-03-01T12:10:22.374Z,98385.80
2019-03-01T12:12:48.946Z,98386.84
2019-03-01T12:15:15.550Z,98380.30
2019-03-01T12:17:42.170Z,98372.28
2019-03-01T12:20:08.752Z,98374.09
2019-03-01T12:22:35.343Z,98377.75
2019-03-01T12:25:01.955Z,98368.22
2019-03-01T12:27:28.532Z,98369.21
2019-03-01T12:29:55.140Z,98367.55
2019-03-01T12:32:21.709Z,98364.05
2019-03-01T12:34:48.317Z,98360.56
2019-03-01T12:37:14.900Z,98352.55
2019-03-01T12:39:41.506Z,98346.22
2019-03-01T12:42:08.081Z,98349.05
2019-03-01T12:44:34.693Z,98341.71
2019-03-01T12:47:01.273Z,98347.56
2019-03-01T12:49:28.051Z,98344.83
2019-03-01T12:51:54.616Z,98338.39
2019-03-01T12:54:21.192Z,98342.52
2019-03-01T12:56:47.775Z,98339.99
2019-03-01T12:59:14.353Z,98344.08
2019-03-01T13:01:40.926Z,98343.90
2019-03-01T13:04:07.499Z,98345.75
2019-03-01T13:06:35.394Z,98342.00
2019-03-01T13:09:02.377Z,98345.75
2019-03-01T13:11:28.959Z,98342.93
2019-03-01T13:13:55.532Z,98350.25
2019-03-01T13:16:23.489Z,98353.23
2019-03-01T13:18:51.432Z,98348.86
2019-03-01T13:21:18.732Z,98352.16
2019-03-01T13:23:45.529Z,98355.25
2019-03-01T13:26:12.145Z,98346.59
2019-03-01T13:28:38.735Z,98337.69
2019-03-01T13:31:08.161Z,98333.33
2019-03-01T13:33:34.709Z,98338.39
2019-03-01T13:36:03.630Z,98336.02
2019-03-01T13:38:30.358Z,98327.92
2019-03-01T13:40:58.839Z,98333.71
2019-03-01T13:43:27.355Z,98330.66
2019-03-01T13:45:54.883Z,98330.94
2019-03-01T13:48:21.462Z,98330.75
2019-03-01T13:50:48.042Z,98330.58
2019-03-01T13:53:14.621Z,98332.83
2019-03-01T13:55:41.197Z,98329.70
2019-03-01T13:58:07.774Z,98322.81
2019-03-01T14:00:34.369Z,98333.11
2019-03-01T14:03:00.939Z,98328.86
2019-03-01T14:05:27.524Z,98325.30
2019-03-01T14:07:56.569Z,98329.03
2019-03-01T14:10:22.398Z,98330.91
2019-03-01T14:12:48.986Z,98321.72
2019-03-01T14:15:15.649Z,98324.67
2019-03-01T14:17:42.260Z,98322.42
2019-03-01T14:20:08.851Z,98325.52
2019-03-01T14:22:35.436Z,98328.13
2019-03-01T14:25:02.516Z,98325.09
2019-03-01T14:27:30.424Z,98327.88
2019-03-01T14:29:57.104Z,98327.47
2019-03-01T14:32:23.711Z,98327.75
2019-03-01T14:34:50.294Z,98329.41
2019-03-01T14:37:18.639Z,98326.06
2019-03-01T14:39:46.042Z,98323.41
2019-03-01T14:42:12.826Z,98323.58
2019-03-01T14:44:39.411Z,98326.95
2019-03-01T14:47:06.000Z,98319.84
2019-03-01T14:49:32.559Z,98323.46
2019-03-01T14:51:59.151Z,98325.82
2019-03-01T14:54:25.720Z,98332.77
2019-03-01T14:56:52.304Z,98329.09
2019-03-01T14:59:18.894Z,98328.19
2019-03-01T15:01:45.479Z,98327.36
2019-03-01T15:04:12.375Z,98331.44
2019-03-01T15:06:39.225Z,98335.22
2019-03-01T15:09:06.305Z,98334.41
2019-03-01T15:11:32.884Z,98332.44
2019-03-01T15:13:59.449Z,98332.39
2019-03-01T15:16:26.038Z,98335.70
2019-03-01T15:18:52.606Z,98338.95
2019-03-01T15:21:19.186Z,98332.23
2019-03-01T15:23:45.764Z,98335.55
2019-03-01T15:26:12.339Z,98337.41
2019-03-01T15:28:38.919Z,98333.13
2019-03-01T15:31:05.640Z,98332.94
2019-03-01T15:33:32.233Z,98338.95
2019-03-01T15:35:58.801Z,98335.86
2019-03-01T15:38:27.687Z,98340.70
2019-03-01T15:40:53.757Z,98342.38
2019-03-01T15:43:20.323Z,98342.03
2019-03-01T15:45:46.939Z,98349.11
2019-03-01T15:48:15.789Z,98350.20
2019-03-01T15:50:42.370Z,98356.91
2019-03-01T15:53:08.965Z,98351.00
2019-03-01T15:55:35.546Z,98348.72
2019-03-01T15:58:02.178Z,98353.73
2019-03-01T16:00:29.436Z,98349.91
2019-03-01T16:02:57.255Z,98352.52
2019-03-01T16:05:23.841Z,98352.61
2019-03-01T16:07:50.452Z,98364.49
2019-03-01T16:10:17.025Z,98367.22
2019-03-01T16:12:43.634Z,98369.02
2019-03-01T16:15:10.216Z,98369.46
2019-03-01T16:17:36.834Z,98367.27
2019-03-01T16:20:03.408Z,98376.61
2019-03-01T16:22:30.007Z,98382.69
2019-03-01T16:24:56.590Z,98378.22
2019-03-01T16:27:23.199Z,98390.19
2019-03-01T16:29:49.771Z,98394.95
2019-03-01T16:32:16.373Z,98393.25
2019-03-01T16:34:42.961Z,98396.80
2019-03-01T16:37:09.585Z,98395.68
2019-03-01T16:39:36.163Z,98402.91
2019-03-01T16:42:02.829Z,98401.79
2019-03-01T16:44:29.541Z,98409.75
2019-03-01T16:46:56.139Z,98413.78
2019-03-01T16:49:23.707Z,98425.07
2019-03-01T16:51:53.966Z,98426.33
2019-03-01T16:54:19.331Z,98431.47
2019-03-01T16:56:46.042Z,98441.73
2019-03-01T16:59:13.710Z,98436.30
2019-03-01T17:01:40.820Z,98445.25
2019-03-01T17:04:07.484Z,98445.70
2019-03-01T17:06:34.094Z,98451.27
2019-03-01T17:09:00.665Z,98451.09
2019-03-01T17:11:27.292Z,98462.03
2019-03-01T17:13:53.875Z,98461.52
2019-03-01T17:16:23.566Z,98467.66
2019-03-01T17:18:48.773Z,98471.57
2019-03-01T17:21:16.540Z,98471.02
2019-03-01T17:23:43.315Z,98482.69
2019-03-01T17:26:09.881Z,98488.84
2019-03-01T17:28:36.451Z,98484.36
2019-03-01T17:31:03.036Z,98495.92
2019-03-01T17:33:29.604Z,98497.52
2019-03-01T17:35:56.194Z,98493.06
2019-03-01T17:38:22.767Z,98503.20
2019-03-01T17:40:49.344Z,98508.19
2019-03-01T17:43:15.933Z,98509.59
2019-03-01T17:45:42.504Z,98520.78
2019-03-01T17:48:09.091Z,98524.35
2019-03-01T17:50:35.659Z,98521.58
2019-03-01T17:53:02.225Z,98525.70
2019-03-01T17:55:28.809Z,98530.13
2019-03-01T17:57:55.387Z,98530.22
2019-03-01T18:00:25.447Z,98531.63
2019-03-01T18:02:52.095Z,98536.04
2019-03-01T18:05:18.614Z,98539.33
2019-03-01T18:07:45.198Z,98536.52
2019-03-01T18:10:14.043Z,98540.77
2019-03-01T18:12:40.652Z,98547.06
2019-03-01T18:15:08.639Z,98546.41
2019-03-01T18:17:36.409Z,98554.69
2019-03-01T18:20:04.267Z,98559.84
2019-03-01T18:22:31.234Z,98557.12
2019-03-01T18:24:57.845Z,98563.88
2019-03-01T18:27:24.450Z,98563.16
2019-03-01T18:29:51.024Z,98565.97
2019-03-01T18:32:17.636Z,98575.25
2019-03-01T18:34:44.210Z,98579.19
2019-03-01T18:37:19.154Z,98585.38
2019-03-01T18:39:41.168Z,98588.48
2019-03-01T18:42:07.521Z,98578.81
2019-03-01T18:44:34.090Z,98575.72
2019-03-01T18:47:00.676Z,98580.97
2019-03-01T18:49:27.244Z,98580.59
2019-03-01T18:51:53.818Z,98583.31
2019-03-01T18:54:20.400Z,98589.98
2019-03-01T18:56:46.972Z,98593.16
2019-03-01T18:59:13.887Z,98597.87
2019-03-01T19:01:42.977Z,98605.17
2019-03-01T19:04:09.210Z,98605.44
2019-03-01T19:06:35.775Z,98607.40
2019-03-01T19:09:02.396Z,98620.80
2019-03-01T19:11:28.973Z,98629.32
2019-03-01T19:13:58.497Z,98633.61
2019-03-01T19:16:25.359Z,98642.50
2019-03-01T19:18:53.955Z,98650.89
2019-03-01T19:21:20.444Z,98653.71
2019-03-01T19:23:47.034Z,98657.91
2019-03-01T19:26:13.601Z,98655.02
2019-03-01T19:28:40.168Z,98656.80
2019-03-01T19:31:06.854Z,98665.48
2019-03-01T19:33:34.707Z,98661.80
2019-03-01T19:36:03.529Z,98662.69
2019-03-01T19:38:30.316Z,98673.48
2019-03-01T19:40:56.892Z,98674.98
2019-03-01T19:43:23.481Z,98679.44
2019-03-01T19:45:50.057Z,98692.23
2019-03-01T19:48:16.633Z,98688.77
2019-03-01T19:50:43.632Z,98697.70
2019-03-01T19:53:10.267Z,98698.39
2019-03-01T19:55:36.846Z,98700.42
2019-03-01T19:58:03.417Z,98704.96
2019-03-01T20:00:30.008Z,98704.27
2019-03-01T20:02:56.582Z,98704.87
2019-03-01T20:05:27.928Z,98709.45
2019-03-01T20:07:55.637Z,98713.52
2019-03-01T20:10:22.256Z,98723.75
2019-03-01T20:12:48.870Z,98722.66
2019-03-01T20:15:15.433Z,98728.22
2019-03-01T20:17:44.637Z,98733.68
2019-03-01T20:20:10.336Z,98740.05
2019-03-01T20:22:36.945Z,98739.91
2019-03-01T20:25:03.524Z,98743.66
2019-03-01T20:27:30.093Z,98751.36
2019-03-01T20:29:56.675Z,98759.36
2019-03-01T20:32:23.253Z,98760.95
2019-03-01T20:34:49.834Z,98761.58
2019-03-01T20:37:16.527Z,98770.58
2019-03-01T20:39:43.091Z,98777.33
2019-03-01T20:42:10.776Z,98777.53
2019-03-01T20:44:37.377Z,98776.07
2019-03-01T20:47:03.948Z,98783.20
2019-03-01T20:49:30.525Z,98788.63
2019-03-01T20:51:58.709Z,98800.17
2019-03-01T20:54:27.078Z,98805.21
2019-03-01T20:56:53.754Z,98810.25
2019-03-01T20:59:20.458Z,98805.70
2019-03-01T21:01:47.043Z,98807.79
2019-03-01T21:04:13.660Z,98817.36
2019-03-01T21:06:40.550Z,98816.83
2019-03-01T21:09:07.420Z,98820.63
2019-03-01T21:11:34.001Z,98822.59
2019-03-01T21:14:00.615Z,98823.35
2019-03-01T21:16:27.328Z,98825.39
2019-03-01T21:18:53.919Z,98833.93
2019-03-01T21:21:20.498Z,98835.91
2019-03-01T21:23:47.657Z,98837.84
2019-03-01T21:26:15.770Z,98850.23
2019-03-01T21:28:43.474Z,98856.64
2019-03-01T21:31:10.045Z,98853.86
2019-03-01T21:33:38.014Z,98863.17
2019-03-01T21:36:04.598Z,98870.81
2019-03-01T21:38:31.205Z,98870.25
2019-03-01T21:40:57.776Z,98871.88
2019-03-01T21:43:24.383Z,98872.20
2019-03-01T21:45:50.958Z,98868.21
2019-03-01T21:48:18.645Z,98875.06
2019-03-01T21:50:45.380Z,98881.48
2019-03-01T21:53:11.957Z,98874.47
2019-03-01T21:55:38.538Z,98878.70
2019-03-01T21:58:06.535Z,98875.04
2019-03-01T22:00:34.871Z,98876.61
2019-03-01T22:03:01.579Z,98880.81
2019-03-01T22:05:28.149Z,98875.00
2019-03-01T22:07:54.712Z,98889.17
2019-03-01T22:10:21.316Z,98888.52
2019-03-01T22:12:47.998Z,98890.92
2019-03-01T22:15:14.610Z,98897.63
2019-03-01T22:17:41.176Z,98899.02
2019-03-01T22:20:08.929Z,98903.03
2019-03-01T22:22:37.554Z,98902.27
2019-03-01T22:25:04.464Z,98901.87
2019-03-01T22:27:31.035Z,98901.55
2019-03-01T22:29:57.648Z,98900.74
2019-03-01T22:32:24.221Z,98905.95
2019-03-01T22:34:50.821Z,98898.19
2019-03-01T22:37:17.400Z,98896.44
2019-03-01T22:39:44.000Z,98895.13
2019-03-01T22:42:11.436Z,98898.55
2019-03-01T22:44:38.911Z,98902.41
2019-03-01T22:47:05.488Z,98904.47
2019-03-01T22:49:32.767Z,98897.52
2019-03-01T22:51:59.450Z,98902.72
2019-03-01T22:54:26.053Z,98906.13
2019-03-01T22:56:52.686Z,98908.33
2019-03-01T22:59:19.291Z,98913.54
2019-03-01T23:01:45.859Z,98918.34
2019-03-01T23:04:12.500Z,98916.64
2019-03-01T23:06:39.079Z,98922.38
2019-03-01T23:09:10.220Z,98919.78
2019-03-01T23:11:33.971Z,98922.03
2019-03-01T23:14:00.552Z,98924.63
2019-03-01T23:16:27.118Z,98921.17
2019-03-01T23:18:56.584Z,98924.63
2019-03-01T23:21:21.997Z,98927.28
2019-03-01T23:23:48.591Z,98928.19
2019-03-01T23:26:15.161Z,98931.28
2019-03-01T23:28:43.797Z,98933.89
2019-03-01T23:31:10.038Z,98931.38
2019-03-01T23:33:36.605Z,98934.43
2019-03-01T23:36:03.179Z,98941.89
2019-03-01T23:38:29.759Z,98940.31
2019-03-01T23:40:56.331Z,98946.42
2019-03-01T23:43:22.902Z,98941.70
2019-03-01T23:45:49.867Z,98951.67
2019-03-01T23:48:17.794Z,98955.63
2019-03-01T23:50:44.439Z,98964.33
2019-03-01T23:53:11.013Z,98960.47
2019-03-01T23:55:37.586Z,98963.52
2019-03-01T23:58:06.299Z,98961.86
